Time;durP1;ratioP1;P1;durP2;ratioP2;P2;SDS_P1;SDS_P2;PMS_P1;PMS_P2;Temp;Humidity;BMP_temperature;BMP_pressure;BME280_temperature;BME280_humidity;BME280_pressure;Samples;Min_cycle;Max_cycle;Signal;HPM_P1;HPM_P2
2021/10/10 00:01:05;;;;;;;35.47;25.88;;;9.40;77.00;;;;;;5071435;28;20074;-82
2021/10/10 00:03:32;;;;;;;37.90;28.25;;;9.30;77.00;;;;;;5071821;28;20071;-83
2021/10/10 00:05:59;;;;;;;36.28;26.40;;;9.30;77.00;;;;;;5071862;28;20045;-82
2021/10/10 00:08:26;;;;;;;34.65;26.25;;;9.30;77.00;;;;;;5072171;28;20105;-82
2021/10/10 00:10:53;;;;;;;34.20;26.48;;;9.20;76.90;;;;;;5071453;28;20564;-83
2021/10/10 00:13:19;;;;;;;39.60;28.30;;;9.20;76.80;;;;;;5071721;28;20071;-83
2021/10/10 00:15:46;;;;;;;34.45;26.08;;;9.20;76.80;;;;;;5071181;28;20052;-83
2021/10/10 00:18:13;;;;;;;36.17;26.90;;;9.20;76.80;;;;;;5071553;28;20501;-82
2021/10/10 00:20:40;;;;;;;46.05;27.42;;;9.10;76.90;;;;;;5071536;28;20102;-82
2021/10/10 00:23:07;;;;;;;34.88;26.05;;;9.10;77.00;;;;;;5072084;28;20045;-83
2021/10/10 00:25:35;;;;;;;40.47;28.08;;;9.10;77.10;;;;;;5071126;28;20422;-83
2021/10/10 00:28:02;;;;;;;37.80;26.60;;;9.00;77.20;;;;;;5071188;28;20109;-82
2021/10/10 00:30:29;;;;;;;37.10;26.40;;;9.00;77.20;;;;;;5070996;28;20091;-82
2021/10/10 00:32:55;;;;;;;34.60;23.63;;;9.00;77.20;;;;;;5071355;28;20044;-82
2021/10/10 00:35:22;;;;;;;37.13;25.13;;;9.00;77.10;;;;;;5071806;28;20459;-82
2021/10/10 00:37:49;;;;;;;41.03;29.33;;;9.00;77.10;;;;;;5071082;28;20464;-83
2021/10/10 00:40:16;;;;;;;39.10;28.38;;;8.90;77.10;;;;;;5071031;28;20056;-83
2021/10/10 00:42:43;;;;;;;33.95;25.60;;;8.90;77.30;;;;;;5070690;28;20052;-83
2021/10/10 00:45:10;;;;;;;35.15;28.27;;;8.90;77.40;;;;;;5071076;28;20509;-83
2021/10/10 00:47:37;;;;;;;44.63;30.63;;;8.90;77.40;;;;;;5071143;28;20489;-82
2021/10/10 00:50:06;;;;;;;47.97;30.67;;;8.90;77.50;;;;;;5071426;28;20106;-83
2021/10/10 00:52:40;;;;;;;39.30;29.40;;;8.90;77.60;;;;;;5070889;28;20106;-83
2021/10/10 00:55:07;;;;;;;45.47;30.73;;;8.90;77.60;;;;;;5070837;28;20056;-83
2021/10/10 00:57:35;;;;;;;43.63;29.75;;;8.90;77.60;;;;;;5070387;28;20048;-83
2021/10/10 01:00:05;;;;;;;41.03;30.80;;;8.80;77.60;;;;;;5070866;28;20048;-83
2021/10/10 01:02:32;;;;;;;39.75;28.67;;;8.80;77.60;;;;;;5070917;28;20102;-83
2021/10/10 01:04:59;;;;;;;38.10;28.67;;;8.80;77.60;;;;;;5071024;28;20502;-83
2021/10/10 01:07:26;;;;;;;39.63;28.73;;;8.80;77.60;;;;;;5070518;28;20456;-83
2021/10/10 01:09:53;;;;;;;34.63;24.33;;;8.80;77.70;;;;;;5070605;28;20048;-83
2021/10/10 01:12:20;;;;;;;34.13;25.95;;;8.70;77.60;;;;;;5070346;28;20044;-83
2021/10/10 01:14:47;;;;;;;33.92;25.52;;;8.70;77.50;;;;;;5070608;28;20044;-83
2021/10/10 01:17:14;;;;;;;45.63;28.67;;;8.60;77.40;;;;;;5071075;28;20052;-82
2021/10/10 01:19:43;;;;;;;41.28;30.45;;;8.70;77.30;;;;;;5070341;28;20459;-83
2021/10/10 01:22:10;;;;;;;34.45;26.45;;;8.60;77.40;;;;;;5070387;28;20048;-82
2021/10/10 01:24:37;;;;;;;36.25;28.42;;;8.60;77.40;;;;;;5070235;28;20702;-82
2021/10/10 01:27:04;;;;;;;37.60;29.27;;;8.60;77.50;;;;;;5070165;28;20056;-83
2021/10/10 01:29:31;;;;;;;35.08;26.80;;;8.60;77.50;;;;;;5070753;28;20114;-83
2021/10/10 01:31:58;;;;;;;34.72;26.20;;;8.60;77.60;;;;;;5069942;28;20105;-83
2021/10/10 01:34:25;;;;;;;34.33;25.95;;;8.60;77.40;;;;;;5070193;28;20589;-82
2021/10/10 01:36:52;;;;;;;36.72;27.17;;;8.50;77.30;;;;;;5070112;28;20098;-82
2021/10/10 01:39:19;;;;;;;35.88;24.70;;;8.50;77.30;;;;;;5070312;28;20190;-83
2021/10/10 01:41:45;;;;;;;34.08;26.17;;;8.50;77.40;;;;;;5069929;28;20101;-83
2021/10/10 01:44:15;;;;;;;41.47;28.40;;;8.50;77.30;;;;;;5070805;28;20041;-83
2021/10/10 01:46:42;;;;;;;32.58;25.38;;;8.40;77.30;;;;;;5070007;28;20052;-82
2021/10/10 01:49:10;;;;;;;40.15;27.40;;;8.40;77.40;;;;;;5069600;28;20049;-82
2021/10/10 01:51:37;;;;;;;37.92;27.15;;;8.40;77.30;;;;;;5070136;28;20105;-83
2021/10/10 01:54:04;;;;;;;37.17;27.00;;;8.40;77.40;;;;;;5070298;28;20479;-83
2021/10/10 01:56:31;;;;;;;34.88;25.52;;;8.40;77.40;;;;;;5070087;28;20044;-83
2021/10/10 01:58:58;;;;;;;33.83;24.50;;;8.30;77.50;;;;;;5069574;28;20048;-83
2021/10/10 02:01:25;;;;;;;37.10;27.05;;;8.40;77.50;;;;;;5069950;28;20078;-82
2021/10/10 02:03:53;;;;;;;32.88;24.58;;;8.30;77.40;;;;;;5070030;28;20079;-83
2021/10/10 02:06:20;;;;;;;35.63;24.92;;;8.30;77.40;;;;;;5070016;28;20049;-83
2021/10/10 02:08:48;;;;;;;45.00;26.83;;;8.30;77.40;;;;;;5069980;28;20048;-83
2021/10/10 02:11:15;;;;;;;34.40;26.92;;;8.20;77.40;;;;;;5070233;28;20153;-83
2021/10/10 02:13:42;;;;;;;36.22;27.25;;;8.20;77.40;;;;;;5069836;28;20045;-82
2021/10/10 02:16:09;;;;;;;38.35;29.52;;;8.20;77.40;;;;;;5069952;28;20041;-83
2021/10/10 02:18:36;;;;;;;38.53;28.25;;;8.20;77.40;;;;;;5069882;28;20040;-83
2021/10/10 02:21:04;;;;;;;39.53;26.25;;;8.20;77.40;;;;;;5069921;28;20044;-83
2021/10/10 02:23:30;;;;;;;39.53;27.33;;;8.20;77.40;;;;;;5069989;28;20386;-83
2021/10/10 02:25:58;;;;;;;37.45;27.98;;;8.20;77.30;;;;;;5069860;28;20060;-83
2021/10/10 02:28:25;;;;;;;35.72;27.42;;;8.10;77.30;;;;;;5069679;28;20048;-83
2021/10/10 02:30:52;;;;;;;37.88;27.80;;;8.10;77.30;;;;;;5069628;28;20501;-83
2021/10/10 02:33:19;;;;;;;41.25;29.05;;;8.10;77.30;;;;;;5069921;28;20037;-83
2021/10/10 02:35:46;;;;;;;33.30;25.67;;;8.10;77.30;;;;;;5069810;28;20057;-83
2021/10/10 02:38:13;;;;;;;35.72;26.00;;;8.10;77.50;;;;;;5070242;28;20094;-83
2021/10/10 02:40:40;;;;;;;36.22;26.98;;;8.10;77.50;;;;;;5069217;28;20055;-83
2021/10/10 02:43:08;;;;;;;37.13;26.10;;;8.00;77.60;;;;;;5069539;28;20102;-83
2021/10/10 02:45:34;;;;;;;35.00;24.65;;;8.00;77.60;;;;;;5069519;28;20057;-83
2021/10/10 02:48:01;;;;;;;33.33;24.17;;;8.00;77.50;;;;;;5069815;28;20044;-83
2021/10/10 02:50:28;;;;;;;37.22;27.35;;;8.00;77.50;;;;;;5069823;28;20708;-83
2021/10/10 02:52:55;;;;;;;46.63;30.27;;;8.00;77.40;;;;;;5069855;28;20071;-83
2021/10/10 02:55:22;;;;;;;43.33;29.42;;;7.90;77.50;;;;;;5069198;28;20047;-83
2021/10/10 02:57:49;;;;;;;38.92;28.58;;;8.00;77.60;;;;;;5069502;28;20048;-82
2021/10/10 03:00:16;;;;;;;41.28;27.67;;;7.90;77.60;;;;;;5069625;28;20106;-83
2021/10/10 03:02:43;;;;;;;35.70;25.27;;;7.90;77.60;;;;;;5073042;28;20443;-83
2021/10/10 03:05:10;;;;;;;36.03;27.10;;;7.90;77.60;;;;;;5073548;28;20505;-83
2021/10/10 03:07:38;;;;;;;35.42;25.42;;;7.90;77.60;;;;;;5072571;28;20090;-82
2021/10/10 03:10:06;;;;;;;32.03;23.90;;;7.90;77.60;;;;;;5072871;28;20048;-84
2021/10/10 03:12:33;;;;;;;33.60;24.70;;;7.90;77.40;;;;;;5072912;28;20083;-83
2021/10/10 03:15:00;;;;;;;35.65;24.92;;;7.80;77.30;;;;;;5072910;28;22609;-83
2021/10/10 03:17:27;;;;;;;35.40;25.50;;;7.80;77.20;;;;;;5073244;28;20106;-83
2021/10/10 03:19:54;;;;;;;36.90;24.90;;;7.80;77.20;;;;;;5072715;28;20103;-83
2021/10/10 03:22:21;;;;;;;34.28;24.67;;;7.80;77.10;;;;;;5072280;28;20459;-83
2021/10/10 03:24:48;;;;;;;37.22;25.63;;;7.70;77.00;;;;;;5072382;28;20117;-83
2021/10/10 03:27:15;;;;;;;34.35;25.27;;;7.70;77.00;;;;;;5072672;28;20459;-83
2021/10/10 03:29:42;;;;;;;39.58;26.42;;;7.70;77.10;;;;;;5072802;28;20094;-83
2021/10/10 03:32:09;;;;;;;34.78;24.38;;;7.70;77.00;;;;;;5073085;28;20056;-83
2021/10/10 03:34:35;;;;;;;39.33;26.08;;;7.70;77.00;;;;;;5072286;28;20501;-83
2021/10/10 03:37:02;;;;;;;37.58;28.00;;;7.60;77.10;;;;;;5071938;28;20044;-83
2021/10/10 03:39:29;;;;;;;39.45;27.75;;;7.60;77.20;;;;;;5072251;28;20098;-83
2021/10/10 03:41:56;;;;;;;33.13;25.05;;;7.60;77.30;;;;;;5072361;28;20048;-82
2021/10/10 03:44:23;;;;;;;40.85;29.02;;;7.60;77.40;;;;;;5073000;28;20044;-83
2021/10/10 03:46:50;;;;;;;43.08;30.48;;;7.60;77.40;;;;;;5072395;28;20110;-83
2021/10/10 03:49:17;;;;;;;34.78;26.02;;;7.50;77.50;;;;;;5072140;28;20040;-83
2021/10/10 03:51:43;;;;;;;47.95;32.42;;;7.50;77.60;;;;;;5071717;28;20102;-83
2021/10/10 03:55:09;;;;;;;36.10;28.05;;;7.50;77.70;;;;;;5072215;28;20041;-83
2021/10/10 03:57:00;;;;;;;49.15;31.85;;;7.50;77.80;;;;;;5054063;28;20051;-83
2021/10/10 03:59:27;;;;;;;42.65;31.23;;;7.50;77.80;;;;;;5072353;28;20102;-83
2021/10/10 04:01:54;;;;;;;45.60;32.88;;;7.50;77.90;;;;;;5072175;28;20057;-83
2021/10/10 04:04:21;;;;;;;43.97;31.40;;;7.50;77.90;;;;;;5071834;28;20189;-83
2021/10/10 04:06:48;;;;;;;42.00;30.30;;;7.50;77.90;;;;;;5070036;28;20052;-82
2021/10/10 04:09:16;;;;;;;42.50;30.90;;;7.50;78.00;;;;;;5071929;28;20045;-83
2021/10/10 04:11:42;;;;;;;39.53;29.13;;;7.50;78.00;;;;;;5071383;28;20056;-83
2021/10/10 04:14:09;;;;;;;39.97;30.35;;;7.50;78.10;;;;;;5072126;28;20439;-83
2021/10/10 04:16:36;;;;;;;44.05;29.95;;;7.50;78.00;;;;;;5071716;28;20052;-82
2021/10/10 04:19:03;;;;;;;40.33;31.13;;;7.50;78.00;;;;;;5071523;28;20049;-83
2021/10/10 04:21:30;;;;;;;45.38;32.40;;;7.40;78.10;;;;;;5070945;28;20045;-83
2021/10/10 04:23:56;;;;;;;44.60;32.40;;;7.40;78.10;;;;;;5071633;28;20041;-82
2021/10/10 04:26:23;;;;;;;44.97;30.83;;;7.40;78.20;;;;;;5071801;28;20052;-83
2021/10/10 04:28:50;;;;;;;45.70;32.67;;;7.40;78.20;;;;;;5071278;28;20122;-83
2021/10/10 04:31:18;;;;;;;42.90;31.05;;;7.40;78.20;;;;;;5071354;28;20044;-82
2021/10/10 04:33:45;;;;;;;41.13;29.98;;;7.40;78.20;;;;;;5071302;28;20080;-83
2021/10/10 04:36:12;;;;;;;41.42;28.98;;;7.40;78.20;;;;;;5070934;28;20045;-83
2021/10/10 04:38:39;;;;;;;44.35;31.65;;;7.40;78.20;;;;;;5071323;28;20040;-83
2021/10/10 04:41:06;;;;;;;46.20;31.92;;;7.40;78.20;;;;;;5069700;28;20049;-82
2021/10/10 04:43:32;;;;;;;41.53;31.70;;;7.30;78.20;;;;;;5071000;28;20521;-83
2021/10/10 04:45:59;;;;;;;44.70;31.80;;;7.30;78.30;;;;;;5071046;28;20048;-82
2021/10/10 04:48:26;;;;;;;43.33;31.48;;;7.30;78.40;;;;;;5071024;28;20048;-83
2021/10/10 04:50:53;;;;;;;40.47;30.20;;;7.30;78.50;;;;;;5054770;28;20527;-83
2021/10/10 04:53:20;;;;;;;40.85;30.55;;;7.30;78.50;;;;;;5071513;28;20538;-83
2021/10/10 04:55:47;;;;;;;42.90;30.10;;;7.20;78.50;;;;;;5070947;28;20056;-83
2021/10/10 04:58:13;;;;;;;42.08;29.60;;;7.20;78.50;;;;;;5070882;28;20045;-83
2021/10/10 05:00:40;;;;;;;44.65;28.88;;;7.20;78.50;;;;;;5070541;28;20056;-82
2021/10/10 05:03:08;;;;;;;35.60;26.13;;;7.20;78.40;;;;;;5070860;28;20059;-83
2021/10/10 05:05:41;;;;;;;36.92;26.52;;;7.20;78.30;;;;;;5070528;28;20053;-83
2021/10/10 05:08:09;;;;;;;44.72;32.58;;;7.10;78.20;;;;;;5067279;28;20052;-82
2021/10/10 05:10:37;;;;;;;38.92;28.98;;;7.10;78.20;;;;;;5071233;28;20109;-83
2021/10/10 05:13:04;;;;;;;40.67;27.73;;;7.10;78.20;;;;;;5066862;28;20052;-83
2021/10/10 05:15:31;;;;;;;43.53;30.75;;;7.10;78.20;;;;;;5060930;28;20131;-83
2021/10/10 05:17:58;;;;;;;45.17;32.33;;;7.10;78.10;;;;;;5071601;28;20106;-83
2021/10/10 05:20:25;;;;;;;50.53;34.42;;;7.10;78.10;;;;;;5070966;28;20048;-82
2021/10/10 05:22:52;;;;;;;47.95;33.25;;;7.10;78.20;;;;;;5070018;28;20099;-83
2021/10/10 05:25:19;;;;;;;45.85;32.15;;;7.10;78.20;;;;;;5066103;28;20457;-82
2021/10/10 05:27:46;;;;;;;39.38;29.45;;;7.00;78.30;;;;;;5062533;28;20471;-83
2021/10/10 05:30:13;;;;;;;39.35;27.65;;;7.00;78.40;;;;;;5071524;28;20412;-83
2021/10/10 05:32:40;;;;;;;39.35;29.50;;;7.00;78.40;;;;;;5070846;28;20048;-84
2021/10/10 05:35:07;;;;;;;38.97;28.50;;;7.00;78.40;;;;;;5071423;28;20048;-83
2021/10/10 05:37:34;;;;;;;41.50;30.70;;;7.00;78.50;;;;;;5071382;28;20102;-82
2021/10/10 05:40:01;;;;;;;44.20;29.88;;;7.00;78.50;;;;;;5071251;28;20102;-82
2021/10/10 05:42:27;;;;;;;40.65;28.27;;;7.00;78.50;;;;;;5070911;28;20098;-83
2021/10/10 05:44:54;;;;;;;44.05;30.17;;;7.00;78.50;;;;;;5071264;28;20505;-83
2021/10/10 05:47:21;;;;;;;37.40;26.88;;;6.90;78.50;;;;;;5067579;28;20048;-83
2021/10/10 05:49:48;;;;;;;42.90;28.83;;;6.90;78.40;;;;;;5071142;28;20102;-83
2021/10/10 05:52:17;;;;;;;40.88;30.35;;;6.90;78.30;;;;;;5071455;28;20102;-82
2021/10/10 05:54:45;;;;;;;47.78;31.20;;;6.90;78.30;;;;;;5071168;28;20090;-83
2021/10/10 05:57:14;;;;;;;37.90;27.92;;;6.90;78.20;;;;;;5068276;28;20070;-82
2021/10/10 05:59:41;;;;;;;42.22;30.02;;;6.90;78.10;;;;;;5066882;28;20075;-82
2021/10/10 06:02:08;;;;;;;42.78;30.52;;;6.90;78.20;;;;;;5071683;28;20071;-82
2021/10/10 06:04:35;;;;;;;42.08;29.67;;;6.90;78.30;;;;;;5067132;28;20048;-82
2021/10/10 06:07:02;;;;;;;41.10;30.38;;;6.90;78.20;;;;;;5071472;28;20090;-82
2021/10/10 06:09:29;;;;;;;40.47;30.30;;;6.80;78.10;;;;;;5071342;28;20044;-82
2021/10/10 06:11:56;;;;;;;39.38;29.02;;;6.80;78.10;;;;;;5067293;28;20045;-82
2021/10/10 06:14:23;;;;;;;47.28;33.75;;;6.80;78.00;;;;;;5075760;28;20578;-82
2021/10/10 06:16:51;;;;;;;45.65;34.25;;;6.80;78.10;;;;;;5070896;28;20045;-82
2021/10/10 06:19:18;;;;;;;48.85;34.88;;;6.80;78.20;;;;;;5071269;28;20097;-82
2021/10/10 06:21:44;;;;;;;43.63;31.45;;;6.80;78.30;;;;;;5071418;28;20595;-85
2021/10/10 06:24:11;;;;;;;53.35;36.00;;;6.80;78.30;;;;;;5069651;28;20037;-85
2021/10/10 06:26:38;;;;;;;54.88;36.08;;;6.80;78.40;;;;;;5071096;28;20056;-84
2021/10/10 06:29:05;;;;;;;46.72;33.08;;;6.70;78.50;;;;;;5073587;28;20178;-85
2021/10/10 06:31:32;;;;;;;49.00;33.08;;;6.80;78.60;;;;;;5071104;28;20114;-84
2021/10/10 06:33:59;;;;;;;60.05;36.70;;;6.80;78.80;;;;;;5071263;28;20056;-84
2021/10/10 06:36:26;;;;;;;66.45;42.88;;;6.80;78.90;;;;;;5075457;28;20043;-83
2021/10/10 06:38:53;;;;;;;63.17;40.08;;;6.80;79.00;;;;;;5055365;28;20036;-83
2021/10/10 06:41:21;;;;;;;60.25;36.90;;;6.80;79.10;;;;;;5079136;28;20098;-85
2021/10/10 06:43:48;;;;;;;53.17;33.95;;;6.80;79.20;;;;;;5075263;28;20508;-83
2021/10/10 06:46:14;;;;;;;60.22;42.80;;;6.80;79.30;;;;;;5074991;28;20098;-83
2021/10/10 06:48:41;;;;;;;54.00;38.67;;;6.80;79.30;;;;;;5074782;28;20040;-82
2021/10/10 06:51:09;;;;;;;52.78;38.90;;;6.80;79.40;;;;;;5072659;28;20114;-82
2021/10/10 06:53:36;;;;;;;60.15;43.83;;;6.80;79.50;;;;;;5075421;28;20090;-82
2021/10/10 06:56:06;;;;;;;60.60;44.60;;;6.90;79.60;;;;;;5089811;28;20051;-82
2021/10/10 06:58:33;;;;;;;54.83;43.28;;;6.80;79.70;;;;;;5077228;28;20100;-84
2021/10/10 07:01:00;;;;;;;70.57;49.53;;;6.90;79.90;;;;;;5074405;28;20044;-84
2021/10/10 07:03:27;;;;;;;113.72;64.07;;;6.90;80.00;;;;;;5063980;28;20051;-87
2021/10/10 07:05:54;;;;;;;129.95;77.95;;;6.90;80.20;;;;;;5070786;28;20044;-86
2021/10/10 07:08:21;;;;;;;87.13;60.22;;;6.90;80.30;;;;;;5086106;28;20101;-83
2021/10/10 07:10:48;;;;;;;134.18;69.80;;;6.90;80.50;;;;;;5074025;28;20040;-83
2021/10/10 07:13:15;;;;;;;173.30;92.30;;;6.90;80.60;;;;;;5073571;28;20047;-84
2021/10/10 07:15:41;;;;;;;141.73;80.85;;;7.00;80.80;;;;;;5073276;28;20051;-83
2021/10/10 07:18:08;;;;;;;127.65;74.70;;;7.00;80.90;;;;;;5070898;28;20048;-83
2021/10/10 07:23:27;;;;;;;96.95;64.97;;;7.00;81.10;;;;;;5075485;28;20049;-83
2021/10/10 07:25:58;;;;;;;94.25;61.53;;;7.10;81.20;;;;;;5074436;28;20472;-82
2021/10/10 07:28:25;;;;;;;81.72;56.60;;;7.10;81.30;;;;;;5073131;28;20049;-83
2021/10/10 07:30:52;;;;;;;74.20;50.67;;;7.20;81.40;;;;;;5072761;28;20048;-83
2021/10/10 07:33:19;;;;;;;122.13;82.18;;;7.20;81.40;;;;;;5072258;28;20047;-84
2021/10/10 07:35:48;;;;;;;109.75;74.22;;;7.20;81.40;;;;;;5070211;28;20053;-83
2021/10/10 07:38:15;;;;;;;133.68;91.13;;;7.30;81.60;;;;;;5076592;28;20052;-84
2021/10/10 07:40:42;;;;;;;139.80;93.50;;;7.30;81.70;;;;;;5073273;28;20055;-83
2021/10/10 07:43:09;;;;;;;128.65;86.68;;;7.40;81.80;;;;;;5072375;28;20137;-83
2021/10/10 07:45:41;;;;;;;114.13;76.75;;;7.50;82.00;;;;;;5072596;28;20109;-82
2021/10/10 07:48:09;;;;;;;111.45;73.78;;;7.50;82.20;;;;;;5071466;28;20044;-82
2021/10/10 07:50:37;;;;;;;97.85;64.60;;;7.50;82.30;;;;;;5072942;28;20044;-83
2021/10/10 07:53:05;;;;;;;113.07;69.80;;;7.60;82.50;;;;;;5074607;28;20086;-83
2021/10/10 07:55:32;;;;;;;70.38;53.47;;;7.70;82.60;;;;;;5074203;28;20095;-83
2021/10/10 07:58:00;;;;;;;104.30;67.32;;;7.70;82.70;;;;;;5072348;28;20045;-83
2021/10/10 08:00:32;;;;;;;93.32;65.53;;;7.80;82.80;;;;;;5072511;28;20101;-84
2021/10/10 08:03:02;;;;;;;123.35;72.68;;;7.90;82.90;;;;;;5068636;28;20059;-83
2021/10/10 08:05:38;;;;;;;87.10;58.50;;;7.90;83.00;;;;;;5074219;28;20139;-83
2021/10/10 08:08:05;;;;;;;122.45;73.70;;;7.90;83.10;;;;;;5074577;28;20459;-83
2021/10/10 08:10:33;;;;;;;130.25;77.03;;;8.00;83.20;;;;;;5072409;28;20052;-83
2021/10/10 08:13:00;;;;;;;193.50;98.93;;;8.10;83.30;;;;;;5071977;28;20040;-83
2021/10/10 08:15:27;;;;;;;268.48;108.32;;;8.20;83.50;;;;;;5072221;28;20093;-83
2021/10/10 08:17:54;;;;;;;249.70;108.90;;;8.30;83.70;;;;;;5052657;28;20072;-83
2021/10/10 08:20:21;;;;;;;246.15;107.82;;;8.40;83.90;;;;;;5083654;28;20044;-83
2021/10/10 08:22:49;;;;;;;290.85;114.78;;;8.50;84.10;;;;;;5073527;28;20044;-83
2021/10/10 08:25:16;;;;;;;320.15;120.38;;;8.60;84.20;;;;;;5075744;28;20106;-83
2021/10/10 08:27:45;;;;;;;386.95;134.02;;;8.80;84.40;;;;;;5071862;28;20048;-83
2021/10/10 08:30:15;;;;;;;253.07;103.13;;;8.90;84.60;;;;;;5069893;28;20041;-83
2021/10/10 08:32:45;;;;;;;248.60;101.63;;;9.00;84.80;;;;;;5070805;28;20048;-84
2021/10/10 08:35:13;;;;;;;300.88;115.53;;;9.20;85.10;;;;;;5076245;28;20048;-84
2021/10/10 08:37:42;;;;;;;272.17;106.22;;;9.40;85.20;;;;;;5071828;28;20052;-84
2021/10/10 08:40:10;;;;;;;323.50;120.15;;;9.50;85.30;;;;;;5071855;28;20088;-84
2021/10/10 08:42:41;;;;;;;374.15;126.80;;;9.70;85.40;;;;;;5071502;28;20110;-83
2021/10/10 08:45:13;;;;;;;322.45;116.53;;;9.90;85.50;;;;;;5069091;28;20111;-83
2021/10/10 08:47:44;;;;;;;265.80;106.45;;;9.90;85.60;;;;;;5071281;28;20098;-84
2021/10/10 08:50:15;;;;;;;295.60;112.13;;;10.20;85.70;;;;;;5074507;28;20079;-84
2021/10/10 08:52:48;;;;;;;294.20;114.18;;;10.30;85.70;;;;;;5071473;28;20052;-84
2021/10/10 08:55:15;;;;;;;301.63;113.22;;;10.40;85.80;;;;;;5071374;28;20099;-84
2021/10/10 08:57:43;;;;;;;290.50;107.75;;;10.60;85.90;;;;;;5071226;28;20044;-84
2021/10/10 09:00:17;;;;;;;263.60;98.93;;;10.70;86.00;;;;;;5069010;28;20099;-84
2021/10/10 09:02:48;;;;;;;320.90;115.20;;;10.90;86.10;;;;;;5069811;28;20398;-84
2021/10/10 09:05:15;;;;;;;353.92;117.30;;;11.00;86.10;;;;;;5074803;28;20105;-84
2021/10/10 09:07:44;;;;;;;316.42;106.90;;;11.20;86.20;;;;;;5071488;28;20074;-83
2021/10/10 09:10:28;;;;;;;240.20;90.75;;;11.30;86.30;;;;;;5070809;28;20055;-84
2021/10/10 09:13:05;;;;;;;267.15;98.13;;;11.50;86.30;;;;;;5072704;28;20094;-84
2021/10/10 09:15:34;;;;;;;221.20;91.18;;;11.60;86.20;;;;;;5071036;28;20052;-83
2021/10/10 09:18:03;;;;;;;257.42;101.00;;;11.70;86.30;;;;;;5067567;28;20118;-84
2021/10/10 09:20:30;;;;;;;163.38;76.72;;;11.90;86.30;;;;;;5072794;28;20105;-84
2021/10/10 09:22:58;;;;;;;230.80;92.68;;;12.00;86.30;;;;;;5071556;28;20090;-85
2021/10/10 09:25:25;;;;;;;222.23;95.03;;;12.10;86.30;;;;;;5070467;28;20451;-84
2021/10/10 09:27:51;;;;;;;196.63;88.38;;;12.30;86.30;;;;;;5070915;28;20048;-84
2021/10/10 09:30:22;;;;;;;202.73;87.88;;;12.40;86.30;;;;;;5070008;28;20040;-84
2021/10/10 09:32:55;;;;;;;178.10;82.55;;;12.50;86.20;;;;;;5067944;28;20075;-84
2021/10/10 09:35:29;;;;;;;147.95;73.30;;;12.60;86.20;;;;;;5082483;28;20047;-85
2021/10/10 09:38:23;;;;;;;147.45;72.47;;;12.80;86.10;;;;;;5072443;28;20048;-84
2021/10/10 09:41:00;;;;;;;195.88;88.43;;;12.90;86.00;;;;;;5079724;28;20093;-84
2021/10/10 09:43:27;;;;;;;164.98;79.03;;;13.00;85.80;;;;;;5078066;28;20056;-84
2021/10/10 09:45:55;;;;;;;178.43;82.82;;;13.20;85.80;;;;;;5070979;28;20037;-84
2021/10/10 09:48:33;;;;;;;162.00;81.45;;;13.30;85.80;;;;;;5070076;28;20139;-84
2021/10/10 09:51:00;;;;;;;151.95;74.70;;;13.40;85.60;;;;;;5053490;28;20101;-84
2021/10/10 09:53:32;;;;;;;127.15;69.07;;;;;;;;;;5073539;28;20049;-85
2021/10/10 09:56:17;;;;;;;131.52;69.03;;;13.50;85.20;;;;;;5071481;28;20040;-85
2021/10/10 09:58:45;;;;;;;137.65;69.28;;;13.60;85.00;;;;;;5070676;28;20452;-85
2021/10/10 10:01:13;;;;;;;157.77;75.93;;;13.70;84.90;;;;;;5070689;28;20048;-85
2021/10/10 10:04:06;;;;;;;104.53;60.70;;;13.80;84.80;;;;;;5072346;28;20048;-84
2021/10/10 10:06:35;;;;;;;122.05;66.35;;;13.90;84.60;;;;;;5070831;28;20052;-84
2021/10/10 10:09:08;;;;;;;106.38;61.30;;;13.90;84.40;;;;;;5066706;28;20056;-84
2021/10/10 10:11:40;;;;;;;128.27;70.07;;;14.00;84.20;;;;;;5075021;28;20052;-85
2021/10/10 10:14:11;;;;;;;144.07;73.05;;;14.00;83.90;;;;;;5077015;28;20048;-84
2021/10/10 10:16:46;;;;;;;147.32;73.50;;;14.10;83.90;;;;;;5074510;28;20098;-85
2021/10/10 10:19:18;;;;;;;117.05;65.05;;;14.20;83.90;;;;;;5074511;28;20420;-85
2021/10/10 10:21:52;;;;;;;117.82;67.63;;;14.40;83.40;;;;;;5074301;28;20094;-85
2021/10/10 10:24:21;;;;;;;119.18;64.43;;;14.40;83.20;;;;;;5073147;28;20044;-85
2021/10/10 10:26:48;;;;;;;113.53;65.68;;;14.60;82.90;;;;;;5071849;28;20049;-84
2021/10/10 10:29:23;;;;;;;104.60;63.22;;;14.70;82.70;;;;;;5077898;28;20106;-86
2021/10/10 10:31:51;;;;;;;108.18;60.78;;;14.90;82.30;;;;;;5073465;28;20055;-84
2021/10/10 10:34:28;;;;;;;95.60;59.58;;;15.00;81.50;;;;;;5074067;28;20523;-85
2021/10/10 10:37:03;;;;;;;97.35;58.42;;;15.10;81.20;;;;;;5074041;28;20098;-85
2021/10/10 10:39:49;;;;;;;101.18;60.63;;;15.30;80.80;;;;;;5073860;28;20569;-85
2021/10/10 10:42:23;;;;;;;91.90;55.90;;;15.40;80.60;;;;;;5075265;28;20057;-84
2021/10/10 10:44:51;;;;;;;98.43;56.97;;;15.50;80.30;;;;;;5071354;28;20456;-85
2021/10/10 10:47:22;;;;;;;86.15;53.70;;;15.60;79.90;;;;;;5078023;28;20052;-84
2021/10/10 10:49:53;;;;;;;80.90;52.03;;;15.80;79.60;;;;;;5073959;28;20055;-85
2021/10/10 10:52:34;;;;;;;84.10;53.63;;;15.90;79.40;;;;;;5073432;28;20109;-85
2021/10/10 10:55:17;;;;;;;87.88;55.03;;;16.00;78.70;;;;;;5073704;28;20044;-85
2021/10/10 10:57:55;;;;;;;81.70;54.20;;;16.10;77.90;;;;;;5073766;28;20044;-85
2021/10/10 11:00:27;;;;;;;85.72;53.05;;;16.20;77.50;;;;;;5072904;28;20037;-85
2021/10/10 11:03:00;;;;;;;79.18;48.95;;;16.30;77.00;;;;;;5053936;28;20123;-85
2021/10/10 11:05:57;;;;;;;86.75;53.30;;;16.40;76.90;;;;;;5085650;28;20047;-86
2021/10/10 11:08:27;;;;;;;76.22;49.40;;;16.50;76.40;;;;;;5085264;28;20105;-86
2021/10/10 11:11:03;;;;;;;81.43;50.90;;;16.60;76.20;;;;;;5073648;28;20562;-85
2021/10/10 11:13:35;;;;;;;78.18;48.05;;;16.60;75.80;;;;;;5073455;28;20052;-84
2021/10/10 11:16:15;;;;;;;73.32;49.17;;;16.70;75.50;;;;;;5073360;28;20110;-85
2021/10/10 11:18:51;;;;;;;74.47;47.75;;;16.80;75.40;;;;;;5073416;28;20044;-84
2021/10/10 11:21:25;;;;;;;72.80;49.08;;;16.80;74.90;;;;;;5070554;28;20040;-85
2021/10/10 11:23:56;;;;;;;66.97;45.97;;;16.90;74.80;;;;;;5069692;28;20106;-85
2021/10/10 11:26:31;;;;;;;72.13;46.28;;;16.90;74.60;;;;;;5085088;28;20048;-84
2021/10/10 11:29:00;;;;;;;68.80;44.83;;;17.00;74.40;;;;;;5076284;28;20463;-86
2021/10/10 11:31:30;;;;;;;64.00;45.30;;;17.00;74.20;;;;;;5073199;28;20040;-84
2021/10/10 11:34:03;;;;;;;68.70;46.15;;;17.10;73.70;;;;;;5073112;28;20037;-84
2021/10/10 11:36:40;;;;;;;61.42;43.50;;;17.10;73.50;;;;;;5072785;28;20048;-85
2021/10/10 11:39:24;;;;;;;61.63;44.47;;;17.20;73.40;;;;;;5070156;28;20505;-85
2021/10/10 11:42:06;;;;;;;62.58;43.97;;;17.20;72.90;;;;;;5069816;28;20464;-84
2021/10/10 11:44:40;;;;;;;63.78;45.65;;;17.30;72.80;;;;;;5084523;28;20105;-84
2021/10/10 11:47:23;;;;;;;58.50;41.08;;;17.40;72.80;;;;;;5075228;28;20189;-84
2021/10/10 11:50:00;;;;;;;59.63;43.03;;;17.40;71.40;;;;;;5070436;28;20048;-84
2021/10/10 11:52:42;;;;;;;60.88;43.17;;;17.40;71.30;;;;;;5072630;28;20055;-84
2021/10/10 11:57:57;;;;;;;55.25;40.55;;;17.40;70.70;;;;;;5072542;28;20048;-85
2021/10/10 12:00:26;;;;;;;58.28;40.03;;;17.40;70.80;;;;;;5072114;28;20520;-84
2021/10/10 12:03:02;;;;;;;60.05;39.45;;;17.40;70.80;;;;;;5052915;28;20051;-85
2021/10/10 12:05:37;;;;;;;48.45;37.78;;;17.40;70.80;;;;;;5083821;28;20109;-84
2021/10/10 12:08:18;;;;;;;49.22;35.42;;;17.40;70.60;;;;;;5076411;28;20075;-85
2021/10/10 12:10:48;;;;;;;50.60;35.63;;;17.40;70.50;;;;;;5072300;28;20041;-85
2021/10/10 12:13:18;;;;;;;53.58;40.20;;;17.50;70.50;;;;;;5072348;28;20048;-84
2021/10/10 12:16:06;;;;;;;56.17;38.42;;;17.50;70.40;;;;;;5072162;28;20055;-84
2021/10/10 12:18:33;;;;;;;52.25;37.30;;;17.50;70.60;;;;;;5072489;28;20133;-84
2021/10/10 12:21:30;;;;;;;52.63;36.30;;;17.50;70.70;;;;;;5068380;28;20091;-84
2021/10/10 12:24:14;;;;;;;48.83;35.75;;;17.60;70.90;;;;;;5052107;28;20138;-84
2021/10/10 12:26:56;;;;;;;42.85;35.10;;;17.70;70.20;;;;;;5071423;28;20451;-84
2021/10/10 12:29:22;;;;;;;44.97;33.42;;;17.70;69.40;;;;;;5083792;28;20055;-84
2021/10/10 12:31:50;;;;;;;44.33;33.90;;;17.80;69.20;;;;;;5072074;28;20053;-83
2021/10/10 12:34:17;;;;;;;45.95;32.33;;;17.90;69.40;;;;;;5071146;28;20048;-84
2021/10/10 12:36:46;;;;;;;42.45;32.15;;;18.00;69.50;;;;;;5071863;28;20044;-84
2021/10/10 12:39:15;;;;;;;41.03;31.45;;;18.10;68.90;;;;;;5069765;28;20103;-84
2021/10/10 12:41:42;;;;;;;44.22;32.85;;;18.20;68.30;;;;;;5071199;28;20094;-85
2021/10/10 12:44:10;;;;;;;45.03;33.83;;;18.30;68.00;;;;;;5074182;28;20641;-84
2021/10/10 12:46:55;;;;;;;42.80;33.05;;;18.40;67.90;;;;;;5071594;28;20053;-85